Time;durP1;ratioP1;P1;durP2;ratioP2;P2;SDS_P1;SDS_P2;PMS_P1;PMS_P2;Temp;Humidity;BMP_temperature;BMP_pressure;BME280_temperature;BME280_humidity;BME280_pressure;Samples;Min_cycle;Max_cycle;Signal;HPM_P1;HPM_P2
2022/07/29 00:00:00;;;;;;;8.70;4.70;;;;;;;16.84;50.25;100840.30;108828;1270;22001;-78
2022/07/29 00:02:51;;;;;;;13.10;4.50;;;;;;;16.78;50.40;100839.77;108852;1270;23693;-78
2022/07/29 00:05:25;;;;;;;8.70;4.30;;;;;;;16.75;50.64;100841.38;108843;1270;21988;-78
2022/07/29 00:07:54;;;;;;;9.30;4.80;;;;;;;16.73;50.72;100843.28;108906;1264;21992;-78
2022/07/29 00:10:26;;;;;;;9.50;4.10;;;;;;;16.71;50.79;100846.69;109249;1263;23093;-78
2022/07/29 00:12:56;;;;;;;11.40;4.70;;;;;;;16.68;50.96;100849.48;109527;1263;23768;-79
2022/07/29 00:15:25;;;;;;;11.80;5.10;;;;;;;16.65;51.01;100851.89;109553;1263;22695;-78
2022/07/29 00:17:58;;;;;;;13.70;4.40;;;;;;;16.62;51.24;100854.98;109306;1264;21973;-78
2022/07/29 00:20:27;;;;;;;9.60;4.30;;;;;;;16.60;51.40;100854.69;109298;1264;21992;-78
2022/07/29 00:22:57;;;;;;;7.30;4.70;;;;;;;16.60;51.69;100855.80;109221;1264;21973;-78
2022/07/29 00:25:27;;;;;;;8.60;3.90;;;;;;;16.57;51.61;100852.08;109581;1263;23804;-78
2022/07/29 00:27:58;;;;;;;11.10;4.90;;;;;;;16.52;51.69;100853.69;109682;1263;25000;-79
2022/07/29 00:30:27;;;;;;;9.70;4.90;;;;;;;16.48;51.97;100854.73;109556;1263;21977;-78
2022/07/29 00:32:56;;;;;;;9.90;4.40;;;;;;;16.45;51.96;100858.44;109684;1263;22719;-78
2022/07/29 00:35:43;;;;;;;9.20;4.70;;;;;;;16.43;52.15;100858.54;109182;1267;23023;-76
2022/07/29 00:38:19;;;;;;;9.60;5.10;;;;;;;16.41;52.31;100858.61;109031;1267;23667;-77
2022/07/29 00:40:51;;;;;;;;;;;;;;;16.39;52.45;100854.86;109143;1267;21970;-77
2022/07/29 00:43:20;;;;;;;11.20;4.40;;;;;;;16.31;52.75;100854.80;109059;1267;23060;-78
2022/07/29 00:45:49;;;;;;;11.60;4.10;;;;;;;16.30;52.90;100857.22;109111;1267;22001;-77
2022/07/29 00:48:18;;;;;;;10.90;4.40;;;;;;;16.31;52.79;100852.02;109140;1267;23083;-77
2022/07/29 00:50:49;;;;;;;9.00;5.00;;;;;;;16.30;52.98;100853.33;109112;1267;22749;-78
2022/07/29 00:53:19;;;;;;;7.60;4.50;;;;;;;16.30;53.14;100855.04;109106;1263;21984;-78
2022/07/29 00:55:54;;;;;;;11.60;4.70;;;;;;;16.30;53.08;100852.17;109251;1264;21994;-78
2022/07/29 00:58:26;;;;;;;8.10;5.00;;;;;;;16.31;53.16;100850.50;109308;1263;21987;-78
2022/07/29 01:00:58;;;;;;;10.50;4.20;;;;;;;16.33;53.40;100849.86;109375;1262;23202;-78
2022/07/29 01:03:29;;;;;;;7.80;5.00;;;;;;;16.35;53.46;100850.16;109627;1263;21972;-78
2022/07/29 01:05:59;;;;;;;11.00;4.60;;;;;;;16.34;53.41;100852.25;109569;1263;21972;-78
2022/07/29 01:08:28;;;;;;;11.50;5.40;;;;;;;16.32;53.53;100853.91;109625;1264;22740;-77
2022/07/29 01:10:59;;;;;;;12.30;5.90;;;;;;;16.32;53.66;100849.39;109529;1263;21978;-78
2022/07/29 01:13:30;;;;;;;8.30;5.00;;;;;;;16.28;53.63;100845.17;109274;1263;22497;-78
2022/07/29 01:16:15;;;;;;;13.60;5.30;;;;;;;16.25;53.74;100844.86;109267;1264;22039;-77
2022/07/29 01:18:53;;;;;;;12.00;5.10;;;;;;;16.22;53.92;100842.55;109173;1264;23076;-78
2022/07/29 01:21:47;;;;;;;7.70;4.70;;;;;;;16.19;53.86;100843.55;109298;1263;23826;-78
2022/07/29 01:24:33;;;;;;;8.50;4.80;;;;;;;16.14;53.85;100844.54;109770;1263;23093;-77
2022/07/29 01:27:41;;;;;;;5.80;4.60;;;;;;;16.10;54.00;100843.20;109509;1263;21990;-76
2022/07/29 01:30:11;;;;;;;9.80;4.40;;;;;;;16.06;54.30;100842.70;109228;1264;22048;-77
2022/07/29 01:32:49;;;;;;;8.50;5.20;;;;;;;16.05;54.34;100843.85;109331;1264;23072;-77
2022/07/29 01:35:35;;;;;;;10.40;5.10;;;;;;;16.06;54.44;100842.66;109248;1264;21977;-78
2022/07/29 01:38:21;;;;;;;15.10;5.10;;;;;;;16.07;54.53;100842.23;108927;1267;23641;-77
2022/07/29 01:41:07;;;;;;;10.60;4.20;;;;;;;16.06;54.59;100837.66;109144;1267;22059;-77
2022/07/29 01:43:57;;;;;;;11.10;4.40;;;;;;;16.06;54.75;100839.67;108917;1267;23393;-77
2022/07/29 01:46:38;;;;;;;8.50;4.30;;;;;;;16.04;54.94;100837.27;108820;1267;22938;-77
2022/07/29 01:49:21;;;;;;;7.80;4.40;;;;;;;16.03;55.13;100837.05;108845;1270;22003;-77
2022/07/29 01:52:05;;;;;;;9.40;4.20;;;;;;;15.98;55.13;100836.49;108888;1267;23616;-77
2022/07/29 01:54:45;;;;;;;6.10;3.80;;;;;;;15.94;55.21;100829.69;109095;1266;21979;-77
2022/07/29 01:57:19;;;;;;;10.10;5.30;;;;;;;15.91;55.34;100825.48;109402;1263;23615;-78
2022/07/29 01:59:50;;;;;;;6.30;3.70;;;;;;;15.89;55.40;100823.65;109172;1267;23670;-78
2022/07/29 02:02:23;;;;;;;10.30;4.90;;;;;;;15.88;55.47;100822.83;109265;1267;23078;-78
2022/07/29 02:04:53;;;;;;;11.30;4.70;;;;;;;15.87;55.55;100819.53;108957;1268;22179;-77
2022/07/29 02:07:24;;;;;;;9.90;4.20;;;;;;;15.88;55.57;100820.04;108740;1272;22059;-77
2022/07/29 02:09:55;;;;;;;7.40;4.00;;;;;;;15.88;55.63;100819.83;108550;1273;23721;-77
2022/07/29 02:12:25;;;;;;;9.70;4.00;;;;;;;15.87;55.66;100817.15;108773;1272;21960;-78
2022/07/29 02:15:00;;;;;;;9.10;4.20;;;;;;;15.82;55.73;100815.92;108409;1276;21985;-78
2022/07/29 02:18:08;;;;;;;6.30;4.10;;;;;;;15.79;55.99;100816.92;108480;1273;22102;-78
2022/07/29 02:20:39;;;;;;;8.40;4.50;;;;;;;15.71;55.98;100818.60;108722;1273;23672;-78
2022/07/29 02:23:12;;;;;;;10.00;3.80;;;;;;;15.67;56.09;100816.24;108474;1276;25115;-78
2022/07/29 02:25:43;;;;;;;7.10;4.00;;;;;;;15.66;56.31;100814.20;108379;1276;22173;-78
2022/07/29 02:28:14;;;;;;;6.70;4.50;;;;;;;15.64;56.35;100811.75;108444;1275;23043;-78
2022/07/29 02:30:45;;;;;;;7.40;4.10;;;;;;;15.63;56.31;100813.20;108460;1276;21988;-77
2022/07/29 02:33:17;;;;;;;7.90;4.20;;;;;;;15.59;56.27;100813.70;108632;1270;23206;-78
2022/07/29 02:35:47;;;;;;;7.90;4.20;;;;;;;15.57;56.56;100812.45;108685;1270;22274;-77
2022/07/29 02:41:12;;;;;;;10.40;5.80;;;;;;;15.50;57.07;100810.16;108832;1270;23075;-78
2022/07/29 02:43:44;;;;;;;9.90;5.10;;;;;;;15.49;57.22;100809.14;108805;1267;21985;-77
2022/07/29 02:46:19;;;;;;;11.10;5.20;;;;;;;15.50;57.21;100806.40;109187;1267;21985;-76
2022/07/29 02:49:32;;;;;;;9.70;4.50;;;;;;;15.48;57.38;100803.23;109331;1263;22950;-78
2022/07/29 02:52:27;;;;;;;9.80;4.10;;;;;;;15.44;57.35;100801.09;109292;1264;23609;-77
2022/07/29 02:55:03;;;;;;;7.10;4.40;;;;;;;15.40;57.38;100799.78;109700;1263;22762;-78
2022/07/29 02:58:15;;;;;;;9.70;3.70;;;;;;;15.41;57.65;100797.54;109321;1263;22211;-78
2022/07/29 03:00:47;;;;;;;8.60;4.50;;;;;;;15.43;57.77;100802.43;108868;1270;23722;-77
2022/07/29 03:03:18;;;;;;;7.60;4.50;;;;;;;15.46;57.88;100799.92;108812;1270;23079;-79
2022/07/29 03:05:47;;;;;;;11.00;5.10;;;;;;;15.51;57.83;100796.86;108787;1270;23646;-79
2022/07/29 03:08:17;;;;;;;9.10;4.90;;;;;;;15.54;57.89;100790.63;108755;1270;23657;-78
2022/07/29 03:10:51;;;;;;;7.50;5.40;;;;;;;15.52;57.74;100789.05;108848;1270;22959;-78
2022/07/29 03:13:21;;;;;;;7.60;5.50;;;;;;;15.51;57.74;100788.55;108955;1270;22499;-79
2022/07/29 03:15:52;;;;;;;12.30;5.90;;;;;;;15.50;57.75;100791.08;108779;1270;22368;-78
2022/07/29 03:18:27;;;;;;;11.90;5.10;;;;;;;15.51;57.92;100791.94;108767;1270;22045;-78
2022/07/29 03:20:56;;;;;;;9.70;5.00;;;;;;;15.48;57.75;100790.23;108930;1270;21964;-78
2022/07/29 03:23:27;;;;;;;6.50;4.40;;;;;;;15.46;57.75;100793.61;108784;1270;22059;-78
2022/07/29 03:26:07;;;;;;;8.20;4.40;;;;;;;15.45;57.86;100795.33;109081;1268;21991;-78
2022/07/29 03:28:38;;;;;;;9.60;5.40;;;;;;;15.45;57.84;100799.52;108874;1270;24924;-78
2022/07/29 03:31:10;;;;;;;9.20;4.30;;;;;;;15.48;57.91;100800.80;108900;1270;22006;-78
2022/07/29 03:33:40;;;;;;;8.10;4.40;;;;;;;15.50;57.94;100805.09;108528;1273;22014;-78
2022/07/29 03:36:11;;;;;;;9.00;4.50;;;;;;;15.53;58.02;100810.31;108427;1276;22008;-77
2022/07/29 03:38:45;;;;;;;9.50;4.10;;;;;;;15.53;58.06;100805.36;108495;1273;22107;-78
2022/07/29 03:41:16;;;;;;;5.90;3.70;;;;;;;15.54;58.13;100801.29;108466;1273;22000;-79
2022/07/29 03:43:55;;;;;;;5.70;3.40;;;;;;;15.54;58.01;100801.15;108486;1273;24386;-79
2022/07/29 03:46:28;;;;;;;5.50;3.30;;;;;;;15.51;57.88;100804.98;108435;1273;23619;-79
2022/07/29 03:49:04;;;;;;;9.70;4.00;;;;;;;15.49;57.80;100803.64;108381;1276;22065;-77
2022/07/29 03:51:34;;;;;;;14.10;4.50;;;;;;;15.48;57.91;100802.70;108402;1276;23698;-78
2022/07/29 03:54:07;;;;;;;9.00;4.10;;;;;;;15.49;58.07;100803.45;108219;1274;21997;-78
2022/07/29 03:56:45;;;;;;;9.40;3.80;;;;;;;15.52;58.07;100804.30;108074;1282;22015;-78
2022/07/29 03:59:19;;;;;;;5.30;3.70;;;;;;;15.56;58.27;100807.93;108233;1279;22001;-78
2022/07/29 04:01:49;;;;;;;12.60;5.20;;;;;;;15.61;58.38;100811.60;108280;1279;22080;-77
2022/07/29 04:04:21;;;;;;;11.40;5.40;;;;;;;15.63;58.20;100812.42;108219;1281;23606;-77
2022/07/29 04:06:50;;;;;;;9.40;4.70;;;;;;;15.63;57.94;100813.69;107872;1283;23211;-78
2022/07/29 04:09:22;;;;;;;12.40;4.90;;;;;;;15.59;58.05;100810.46;108038;1281;23605;-80
2022/07/29 04:11:53;;;;;;;11.80;4.90;;;;;;;15.60;58.08;100811.95;107901;1281;23083;-77
2022/07/29 04:14:33;;;;;;;6.70;4.20;;;;;;;15.61;58.04;100811.06;107922;1282;22815;-79
2022/07/29 04:17:04;;;;;;;12.30;5.10;;;;;;;15.62;58.01;100814.11;108059;1279;22002;-75
2022/07/29 04:19:33;;;;;;;10.40;4.10;;;;;;;15.63;58.07;100814.06;108154;1279;22466;-76
2022/07/29 04:22:02;;;;;;;9.40;4.30;;;;;;;15.67;58.25;100816.38;108269;1279;22947;-78
2022/07/29 04:24:32;;;;;;;8.60;3.80;;;;;;;15.73;58.42;100815.34;108066;1279;22015;-77
2022/07/29 04:27:03;;;;;;;8.50;4.40;;;;;;;15.80;58.34;100816.64;108073;1282;22907;-78
2022/07/29 04:29:40;;;;;;;7.00;4.20;;;;;;;15.84;58.21;100820.84;108301;1273;22362;-75
2022/07/29 04:32:27;;;;;;;13.00;4.60;;;;;;;15.89;58.19;100823.58;108948;1267;22329;-78
2022/07/29 04:34:59;;;;;;;7.10;4.10;;;;;;;15.95;58.13;100825.36;109127;1267;23695;-78
2022/07/29 04:37:36;;;;;;;10.10;4.00;;;;;;;16.01;58.08;100829.21;108956;1267;21996;-77
2022/07/29 04:40:32;;;;;;;8.70;4.00;;;;;;;16.09;57.97;100831.09;109292;1260;21996;-78
2022/07/29 04:43:10;;;;;;;7.90;4.50;;;;;;;16.21;57.94;100834.19;109535;1261;23571;-77
2022/07/29 04:45:54;;;;;;;7.10;3.80;;;;;;;16.31;57.78;100838.58;109630;1261;21987;-78
2022/07/29 04:48:26;;;;;;;5.70;4.50;;;;;;;16.40;57.68;100835.02;109551;1263;22389;-78
2022/07/29 04:50:58;;;;;;;8.20;4.40;;;;;;;16.47;57.51;100836.95;109698;1262;22051;-78
2022/07/29 04:53:35;;;;;;;10.10;4.20;;;;;;;16.53;57.44;100838.64;109506;1263;21936;-77
2022/07/29 04:56:07;;;;;;;10.10;4.20;;;;;;;16.58;57.34;100843.15;109829;1261;23062;-77
2022/07/29 04:58:37;;;;;;;9.40;5.50;;;;;;;16.61;56.90;100842.17;109068;1267;23074;-78
2022/07/29 05:01:14;;;;;;;10.20;5.30;;;;;;;16.62;56.83;100839.30;108745;1273;23689;-78
2022/07/29 05:03:49;;;;;;;10.80;5.10;;;;;;;16.64;56.97;100838.42;108393;1279;22097;-78
2022/07/29 05:06:30;;;;;;;14.20;6.10;;;;;;;16.65;57.08;100839.28;108461;1279;23083;-78
2022/07/29 05:09:07;;;;;;;14.70;6.50;;;;;;;16.71;57.33;100835.71;108421;1279;23626;-80
2022/07/29 05:11:59;;;;;;;10.30;7.40;;;;;;;16.83;57.35;100836.34;108244;1282;22101;-78
2022/07/29 05:14:39;;;;;;;7.70;5.20;;;;;;;16.96;57.23;100837.19;108107;1281;23008;-79
2022/07/29 05:17:29;;;;;;;7.80;5.10;;;;;;;17.09;57.16;100833.27;108038;1282;23735;-80
2022/07/29 05:20:04;;;;;;;7.90;5.20;;;;;;;17.25;56.97;100837.00;108022;1281;23067;-78
2022/07/29 05:22:34;;;;;;;7.00;4.60;;;;;;;17.40;56.90;100835.98;108015;1278;23143;-78
2022/07/29 05:25:08;;;;;;;10.20;4.60;;;;;;;17.55;56.80;100837.92;108473;1276;22438;-78
2022/07/29 05:27:40;;;;;;;6.90;4.40;;;;;;;17.73;56.29;100831.46;108350;1276;23365;-78
2022/07/29 05:30:12;;;;;;;8.90;4.30;;;;;;;17.91;56.13;100831.23;108656;1273;22809;-77
2022/07/29 05:32:41;;;;;;;9.30;4.10;;;;;;;18.11;55.57;100828.94;108517;1273;21993;-76
2022/07/29 05:35:11;;;;;;;8.90;4.40;;;;;;;18.30;55.09;100829.09;108469;1273;23112;-76
2022/07/29 05:37:41;;;;;;;9.30;4.20;;;;;;;18.48;54.61;100828.05;108544;1272;23722;-76
2022/07/29 05:40:11;;;;;;;6.80;5.40;;;;;;;18.74;54.49;100828.17;108436;1270;22003;-76
2022/07/29 05:42:40;;;;;;;6.50;4.10;;;;;;;19.02;54.45;100833.50;108803;1270;23597;-76
2022/07/29 05:45:10;;;;;;;9.40;3.70;;;;;;;19.35;53.96;100834.14;108777;1270;21993;-78
2022/07/29 05:47:39;;;;;;;7.70;4.30;;;;;;;19.68;52.70;100839.71;108523;1270;21983;-78
2022/07/29 05:50:09;;;;;;;13.70;8.70;;;;;;;19.93;51.94;100841.20;108794;1270;21987;-80
2022/07/29 05:52:42;;;;;;;16.70;4.70;;;;;;;20.22;51.54;100844.02;109248;1265;23593;-81
2022/07/29 05:55:17;;;;;;;8.40;5.00;;;;;;;20.55;50.79;100842.39;109028;1269;22112;-77
2022/07/29 05:57:52;;;;;;;9.10;3.80;;;;;;;20.92;50.03;100840.61;108572;1270;22093;-75
2022/07/29 06:00:22;;;;;;;11.00;3.10;;;;;;;21.23;48.45;100842.17;108690;1270;21990;-78
2022/07/29 06:02:51;;;;;;;7.00;3.30;;;;;;;21.33;47.09;100836.50;108738;1273;21999;-77
2022/07/29 06:05:20;;;;;;;9.00;2.90;;;;;;;21.38;46.97;100837.67;108699;1270;23697;-81
2022/07/29 06:07:52;;;;;;;5.40;3.00;;;;;;;21.46;47.36;100838.34;108434;1274;23596;-77
2022/07/29 06:10:22;;;;;;;5.40;2.60;;;;;;;21.72;47.63;100834.98;108484;1276;23068;-76
2022/07/29 06:12:54;;;;;;;7.70;2.50;;;;;;;22.06;46.83;100831.79;108418;1278;22045;-79
2022/07/29 06:15:23;;;;;;;5.50;2.50;;;;;;;22.37;45.71;100832.77;108382;1273;21982;-78
2022/07/29 06:17:53;;;;;;;6.00;2.50;;;;;;;22.56;44.56;100826.73;108790;1270;21980;-78
2022/07/29 06:20:41;;;;;;;7.10;2.70;;;;;;;22.65;44.05;100820.84;108779;1273;23600;-80
2022/07/29 06:23:11;;;;;;;;;;;;;;;22.74;43.51;100824.55;108506;1274;21977;-77
2022/07/29 06:25:42;;;;;;;4.80;2.50;;;;;;;22.74;43.37;100822.23;108438;1276;23611;-77
2022/07/29 06:28:11;;;;;;;7.60;2.20;;;;;;;22.88;43.70;100825.50;108719;1273;21983;-77
2022/07/29 06:30:40;;;;;;;6.50;2.30;;;;;;;23.00;43.18;100825.98;108706;1270;21994;-78
2022/07/29 06:33:16;;;;;;;8.40;4.70;;;;;;;23.12;42.62;100826.64;108905;1270;21995;-78
2022/07/29 06:35:49;;;;;;;5.10;2.40;;;;;;;23.21;42.39;100825.25;108943;1270;22054;-79
2022/07/29 06:38:23;;;;;;;6.90;3.20;;;;;;;23.28;42.15;100825.06;108914;1270;21981;-78
2022/07/29 06:41:02;;;;;;;8.40;2.60;;;;;;;23.30;41.49;100827.11;108969;1266;23742;-78
2022/07/29 06:43:41;;;;;;;5.80;1.90;;;;;;;23.18;41.21;100830.16;109240;1266;21965;-78
2022/07/29 06:46:20;;;;;;;5.90;2.10;;;;;;;22.94;41.07;100825.73;109392;1263;22856;-81
2022/07/29 06:48:51;;;;;;;4.50;2.30;;;;;;;22.66;41.69;100831.20;109281;1264;21960;-78
2022/07/29 06:51:22;;;;;;;10.80;2.40;;;;;;;22.53;42.47;100828.99;109362;1263;22117;-78
2022/07/29 06:53:53;;;;;;;6.70;1.80;;;;;;;22.66;43.05;100828.84;109542;1264;21979;-77
2022/07/29 06:56:35;;;;;;;7.90;1.70;;;;;;;22.88;42.71;100828.44;109493;1263;21988;-78
2022/07/29 06:59:09;;;;;;;6.70;1.70;;;;;;;22.95;41.83;100827.21;109234;1263;23589;-78
2022/07/29 07:01:40;;;;;;;;;;;;;;;22.95;41.53;100825.50;109327;1264;22045;-77
2022/07/29 07:04:13;;;;;;;3.40;1.80;;;;;;;22.97;41.83;100825.70;109489;1263;22036;-77
2022/07/29 07:06:43;;;;;;;3.50;1.90;;;;;;;23.03;41.39;100821.35;109479;1263;24185;-77
2022/07/29 07:09:16;;;;;;;3.80;1.60;;;;;;;23.13;41.26;100818.95;109357;1264;23692;-77
2022/07/29 07:11:45;;;;;;;3.70;2.10;;;;;;;23.20;40.79;100817.36;109480;1264;23017;-78
2022/07/29 07:14:17;;;;;;;5.30;1.90;;;;;;;23.18;40.65;100820.46;108886;1270;23856;-79
2022/07/29 07:16:47;;;;;;;6.60;2.20;;;;;;;23.09;40.42;100825.06;108920;1267;22022;-79
2022/07/29 07:19:20;;;;;;;2.70;1.80;;;;;;;22.94;40.43;100824.98;108827;1267;23085;-78
2022/07/29 07:21:50;;;;;;;5.60;2.10;;;;;;;22.86;40.77;100825.98;108945;1267;22697;-80
2022/07/29 07:24:20;;;;;;;9.10;1.80;;;;;;;22.78;40.56;100825.81;108950;1267;22001;-78
2022/07/29 07:26:49;;;;;;;5.30;2.10;;;;;;;22.69;40.86;100827.71;108820;1269;23627;-79
2022/07/29 07:29:24;;;;;;;7.00;1.70;;;;;;;22.65;40.86;100829.41;109127;1267;21987;-78
2022/07/29 07:31:57;;;;;;;6.90;2.40;;;;;;;22.62;40.97;100829.77;108473;1275;23626;-78
2022/07/29 07:34:29;;;;;;;7.90;1.90;;;;;;;22.60;40.91;100832.69;108772;1272;21988;-77
2022/07/29 07:37:01;;;;;;;4.00;1.60;;;;;;;22.58;40.92;100828.06;108609;1273;23680;-77
2022/07/29 07:39:30;;;;;;;5.70;1.80;;;;;;;22.53;40.57;100832.66;108617;1273;23672;-77
2022/07/29 07:41:59;;;;;;;5.30;1.90;;;;;;;22.46;40.57;100828.39;108531;1273;23600;-77
2022/07/29 07:44:28;;;;;;;5.50;1.70;;;;;;;22.46;40.58;100830.88;108706;1273;23055;-79
2022/07/29 07:46:57;;;;;;;4.80;1.50;;;;;;;22.40;40.37;100825.15;108751;1273;23114;-79
2022/07/29 07:49:37;;;;;;;4.10;1.80;;;;;;;22.46;40.75;100824.63;108419;1276;22026;-79
2022/07/29 07:52:11;;;;;;;5.40;1.90;;;;;;;22.65;40.83;100825.11;108143;1278;22012;-78
2022/07/29 07:54:44;;;;;;;5.70;2.20;;;;;;;22.86;40.44;100827.77;108456;1276;23813;-77
2022/07/29 07:57:15;;;;;;;5.60;2.10;;;;;;;22.97;40.12;100831.20;108501;1271;21981;-79
2022/07/29 07:59:46;;;;;;;3.70;1.60;;;;;;;23.10;40.45;100825.10;108938;1269;22101;-80
2022/07/29 08:02:15;;;;;;;4.40;2.10;;;;;;;23.34;40.24;100824.77;109156;1269;22080;-78
2022/07/29 08:04:45;;;;;;;6.20;2.60;;;;;;;23.51;39.34;100822.11;109008;1269;22005;-78
2022/07/29 08:07:17;;;;;;;5.90;2.20;;;;;;;23.51;38.80;100819.74;109055;1262;21975;-77
2022/07/29 08:09:48;;;;;;;;;;;;;;;23.48;38.79;100816.13;108953;1270;21962;-77
2022/07/29 08:12:17;;;;;;;8.90;2.60;;;;;;;23.46;39.14;100817.05;108991;1267;21985;-80
2022/07/29 08:14:47;;;;;;;5.70;1.90;;;;;;;23.58;39.48;100814.52;109088;1267;23046;-77
2022/07/29 08:17:16;;;;;;;5.00;2.20;;;;;;;23.72;39.03;100817.91;108830;1269;23599;-77
2022/07/29 08:19:47;;;;;;;5.00;1.60;;;;;;;23.85;38.98;100824.14;108912;1267;21991;-77
2022/07/29 08:22:17;;;;;;;5.10;2.10;;;;;;;23.96;38.57;100833.22;108768;1269;24285;-78
2022/07/29 08:24:52;;;;;;;7.40;2.20;;;;;;;23.96;38.47;100827.28;108720;1272;21997;-80
2022/07/29 08:27:28;;;;;;;4.60;2.40;;;;;;;24.01;38.63;100830.70;108754;1267;23687;-78
2022/07/29 08:30:15;;;;;;;5.60;2.30;;;;;;;24.07;38.59;100832.27;109045;1267;22538;-78
2022/07/29 08:32:44;;;;;;;4.40;2.10;;;;;;;24.15;38.53;100835.19;109046;1267;22455;-79
2022/07/29 08:35:24;;;;;;;5.50;2.20;;;;;;;24.21;38.57;100835.79;109226;1267;21984;-79
2022/07/29 08:37:54;;;;;;;4.40;3.10;;;;;;;24.31;38.57;100836.67;109215;1267;21999;-79
2022/07/29 08:40:25;;;;;;;4.60;2.10;;;;;;;24.39;38.43;100842.45;109213;1270;23616;-79
2022/07/29 08:43:11;;;;;;;7.60;1.90;;;;;;;24.51;38.45;100842.29;109203;1264;21980;-79
2022/07/29 08:45:52;;;;;;;6.20;2.20;;;;;;;24.57;37.81;100844.54;109059;1270;22004;-79
2022/07/29 08:48:24;;;;;;;5.80;2.00;;;;;;;24.56;37.93;100839.02;108715;1273;23591;-77
2022/07/29 08:51:01;;;;;;;4.90;2.10;;;;;;;24.62;38.10;100837.15;108639;1273;23615;-81
2022/07/29 08:53:47;;;;;;;4.90;1.90;;;;;;;24.67;37.80;100839.73;108555;1275;23594;-82
2022/07/29 08:56:41;;;;;;;7.00;2.00;;;;;;;24.70;37.97;100837.16;108523;1279;22012;-84
2022/07/29 08:59:15;;;;;;;7.10;2.00;;;;;;;24.70;37.94;100836.95;108620;1276;22097;-81
2022/07/29 09:02:04;;;;;;;;;;;;;;;;;;;;;
2022/07/29 09:04:44;;;;;;;5.80;1.60;;;;;;;24.48;38.32;100827.40;108769;1273;21994;-81
2022/07/29 09:07:27;;;;;;;5.90;2.20;;;;;;;24.61;38.13;100830.45;108797;1273;22787;-82
2022/07/29 09:10:06;;;;;;;6.20;1.70;;;;;;;24.81;37.83;100827.25;108789;1273;22015;-81
2022/07/29 09:12:52;;;;;;;5.80;1.70;;;;;;;24.88;37.41;100819.94;108860;1267;21975;-82
2022/07/29 09:15:27;;;;;;;5.60;2.40;;;;;;;24.97;37.38;100818.20;109548;1261;23634;-80
2022/07/29 09:17:58;;;;;;;4.40;1.50;;;;;;;25.12;37.71;100819.10;109184;1268;23031;-79
2022/07/29 09:23:25;;;;;;;8.40;2.30;;;;;;;25.57;36.58;100816.02;109248;1267;21991;-81
2022/07/29 09:26:05;;;;;;;5.80;1.50;;;;;;;25.68;36.22;100807.73;109133;1267;22065;-81
2022/07/29 09:28:42;;;;;;;5.10;1.70;;;;;;;25.88;35.67;100807.28;108928;1270;23783;-81
2022/07/29 09:31:40;;;;;;;5.00;1.70;;;;;;;25.94;34.49;100806.24;108839;1270;22347;-79
2022/07/29 09:34:30;;;;;;;1.70;1.20;;;;;;;25.86;34.44;100801.64;108969;1270;21985;-80
2022/07/29 09:37:11;;;;;;;4.90;1.60;;;;;;;25.80;34.35;100804.12;108801;1270;22539;-80
2022/07/29 09:39:47;;;;;;;4.10;1.30;;;;;;;25.73;33.93;100800.04;108578;1272;23075;-80
2022/07/29 09:42:29;;;;;;;3.70;1.80;;;;;;;25.66;33.74;100799.83;108993;1270;22049;-79
2022/07/29 09:45:12;;;;;;;4.30;2.00;;;;;;;25.68;33.53;100793.44;108847;1272;21986;-80
2022/07/29 09:48:03;;;;;;;5.40;1.90;;;;;;;25.71;32.84;100795.15;108998;1270;22382;-80
2022/07/29 09:50:50;;;;;;;11.80;2.10;;;;;;;25.70;32.49;100798.66;109083;1269;22009;-81
2022/07/29 09:53:39;;;;;;;5.70;1.50;;;;;;;25.67;32.72;100790.02;109001;1270;23049;-80
2022/07/29 09:56:47;;;;;;;5.80;1.30;;;;;;;25.70;32.75;100790.69;109892;1263;22219;-80
2022/07/29 09:59:38;;;;;;;5.20;1.50;;;;;;;25.68;32.80;100791.72;109652;1264;23666;-80
2022/07/29 10:02:24;;;;;;;4.20;2.10;;;;;;;25.69;32.67;100793.95;109774;1264;22294;-77
2022/07/29 10:05:01;;;;;;;4.80;1.40;;;;;;;25.73;32.66;100787.43;109684;1261;21971;-80
2022/07/29 10:07:56;;;;;;;3.70;1.20;;;;;;;25.75;32.27;100786.73;109376;1261;22068;-78
2022/07/29 10:10:46;;;;;;;4.80;1.30;;;;;;;25.75;31.87;100788.25;109525;1261;21986;-79
2022/07/29 10:13:27;;;;;;;6.30;1.60;;;;;;;25.67;31.81;100780.50;109443;1261;21978;-77
2022/07/29 10:15:57;;;;;;;11.00;2.30;;;;;;;25.58;31.82;100773.02;109576;1261;22023;-76
2022/07/29 10:18:26;;;;;;;3.70;1.50;;;;;;;25.57;32.33;100763.05;109525;1261;21980;-77
2022/07/29 10:21:02;;;;;;;7.50;1.90;;;;;;;25.62;32.74;100761.32;109616;1262;24234;-78
2022/07/29 10:23:43;;;;;;;4.30;1.80;;;;;;;25.65;32.39;100758.30;109264;1263;21972;-80
2022/07/29 10:26:19;;;;;;;4.80;1.60;;;;;;;25.59;32.24;100761.06;109596;1261;22051;-79
2022/07/29 10:28:52;;;;;;;5.00;1.50;;;;;;;25.53;32.48;100762.85;108941;1270;22098;-79
2022/07/29 10:32:01;;;;;;;7.10;1.70;;;;;;;25.56;32.58;100765.86;108816;1267;22771;-78
2022/07/29 10:35:05;;;;;;;7.00;1.90;;;;;;;25.72;32.53;100765.61;108548;1272;22762;-77
2022/07/29 10:38:01;;;;;;;2.70;1.40;;;;;;;25.87;32.37;100767.54;108732;1273;23739;-78
2022/07/29 10:43:53;;;;;;;3.30;1.50;;;;;;;26.06;31.66;100768.02;108793;1272;24436;-79
2022/07/29 10:46:30;;;;;;;4.70;1.80;;;;;;;26.11;31.35;100767.06;108465;1273;22009;-78
2022/07/29 10:49:20;;;;;;;4.30;1.40;;;;;;;26.14;31.22;100765.73;108187;1279;21996;-80
2022/07/29 10:52:19;;;;;;;5.00;1.60;;;;;;;26.22;30.92;100769.14;108147;1274;23443;-78
2022/07/29 10:55:49;;;;;;;3.90;1.50;;;;;;;26.29;30.58;100762.83;108718;1272;21988;-78
2022/07/29 10:58:27;;;;;;;6.50;1.30;;;;;;;26.37;30.15;100761.31;108564;1273;23022;-77
2022/07/29 11:01:34;;;;;;;5.10;1.40;;;;;;;26.46;30.00;100760.39;108499;1273;21984;-79
2022/07/29 11:04:18;;;;;;;8.10;1.40;;;;;;;26.52;29.61;100763.52;108645;1273;23119;-79
2022/07/29 11:07:17;;;;;;;3.70;1.30;;;;;;;26.48;29.45;100756.61;108663;1267;22048;-79
2022/07/29 11:10:34;;;;;;;4.20;1.30;;;;;;;26.43;29.41;100759.92;108421;1273;23703;-78
2022/07/29 11:13:55;;;;;;;6.20;1.40;;;;;;;26.33;29.49;100756.67;107931;1281;22024;-79
2022/07/29 11:16:25;;;;;;;4.40;1.90;;;;;;;26.26;29.56;100748.35;108049;1281;23767;-78
2022/07/29 11:19:19;;;;;;;4.30;1.80;;;;;;;26.25;29.64;100748.13;107933;1285;22012;-78
2022/07/29 11:22:13;;;;;;;3.90;1.10;;;;;;;26.23;29.75;100748.77;107957;1282;22739;-78
2022/07/29 11:25:27;;;;;;;3.50;1.50;;;;;;;26.14;29.64;100748.61;107871;1283;23190;-78
2022/07/29 11:28:32;;;;;;;2.90;1.20;;;;;;;26.07;29.93;100744.67;108033;1283;22043;-77
2022/07/29 11:31:04;;;;;;;6.10;1.80;;;;;;;26.04;29.76;100747.41;107393;1287;23772;-78
2022/07/29 11:33:40;;;;;;;2.80;1.20;;;;;;;26.01;29.85;100739.48;107614;1287;24666;-79
2022/07/29 11:36:36;;;;;;;3.60;1.10;;;;;;;26.05;29.96;100740.16;107760;1281;21980;-78
2022/07/29 11:39:28;;;;;;;7.90;2.30;;;;;;;26.12;29.79;100740.21;108255;1281;24345;-77
2022/07/29 11:42:20;;;;;;;5.30;1.70;;;;;;;26.17;29.67;100735.20;107961;1283;22004;-78
2022/07/29 11:45:28;;;;;;;8.60;1.40;;;;;;;26.24;29.75;100734.60;107873;1285;22000;-79
2022/07/29 11:48:18;;;;;;;4.30;1.30;;;;;;;26.26;29.51;100734.22;108065;1280;22016;-79
2022/07/29 11:50:59;;;;;;;8.90;2.20;;;;;;;26.27;29.25;100728.81;108417;1275;22001;-78
2022/07/29 11:53:31;;;;;;;4.00;1.50;;;;;;;26.30;29.23;100731.75;108474;1273;23549;-79
2022/07/29 11:56:03;;;;;;;7.40;1.40;;;;;;;26.27;29.04;100729.79;108178;1271;344060;-79
2022/07/29 11:58:37;;;;;;;5.00;1.30;;;;;;;26.24;29.19;100725.27;108714;1272;22542;-79
2022/07/29 12:01:21;;;;;;;8.00;1.20;;;;;;;26.24;29.12;100725.44;108601;1272;22062;-78
2022/07/29 12:04:06;;;;;;;2.70;1.00;;;;;;;26.20;29.15;100724.82;108892;1267;21997;-87
2022/07/29 12:06:58;;;;;;;3.40;1.50;;;;;;;26.21;29.19;100721.73;109216;1267;22163;-79
2022/07/29 12:09:33;;;;;;;5.30;1.50;;;;;;;26.18;29.16;100720.42;108933;1270;22925;-79
2022/07/29 12:12:19;;;;;;;5.30;1.30;;;;;;;26.12;29.13;100720.55;109058;1270;22021;-79